sensor_id;sensor_type;location;lat;lon;timestamp;pressure;altitude;pressure_sealevel;temperature;humidity
57606;BME280;43430;48.204;11.556;2023-05-24T00:01:39;96172.66;;;12.56;100.00
57606;BME280;43430;48.204;11.556;2023-05-24T00:04:06;96166.44;;;12.50;100.00
57606;BME280;43430;48.204;11.556;2023-05-24T00:06:32;96166.53;;;12.44;100.00
57606;BME280;43430;48.204;11.556;2023-05-24T00:08:59;96159.00;;;12.17;100.00
57606;BME280;43430;48.204;11.556;2023-05-24T00:11:25;96168.19;;;12.15;100.00
57606;BME280;43430;48.204;11.556;2023-05-24T00:13:51;96167.13;;;12.04;100.00
57606;BME280;43430;48.204;11.556;2023-05-24T00:16:17;96166.47;;;12.08;100.00
57606;BME280;43430;48.204;11.556;2023-05-24T00:18:42;96172.47;;;12.27;100.00
57606;BME280;43430;48.204;11.556;2023-05-24T00:21:11;96166.94;;;12.17;100.00
57606;BME280;43430;48.204;11.556;2023-05-24T00:23:37;96167.19;;;12.16;100.00
57606;BME280;43430;48.204;11.556;2023-05-24T00:26:03;96164.34;;;12.29;100.00
57606;BME280;43430;48.204;11.556;2023-05-24T00:28:29;96152.38;;;12.38;100.00
57606;BME280;43430;48.204;11.556;2023-05-24T00:30:56;96158.00;;;12.42;100.00
57606;BME280;43430;48.204;11.556;2023-05-24T00:33:21;96157.09;;;12.36;100.00
57606;BME280;43430;48.204;11.556;2023-05-24T00:35:48;96157.50;;;12.21;100.00
57606;BME280;43430;48.204;11.556;2023-05-24T00:38:13;96160.16;;;12.09;100.00
57606;BME280;43430;48.204;11.556;2023-05-24T00:40:38;96160.03;;;12.16;100.00
57606;BME280;43430;48.204;11.556;2023-05-24T00:43:04;96157.06;;;12.24;100.00
57606;BME280;43430;48.204;11.556;2023-05-24T00:45:29;96148.44;;;12.17;100.00
57606;BME280;43430;48.204;11.556;2023-05-24T00:47:54;96151.88;;;12.18;100.00
57606;BME280;43430;48.204;11.556;2023-05-24T00:50:20;96152.38;;;12.26;100.00
57606;BME280;43430;48.204;11.556;2023-05-24T00:52:46;96155.91;;;12.20;100.00
57606;BME280;43430;48.204;11.556;2023-05-24T00:55:13;96150.53;;;12.27;100.00
57606;BME280;43430;48.204;11.556;2023-05-24T00:57:39;96149.72;;;12.26;100.00
57606;BME280;43430;48.204;11.556;2023-05-24T01:00:05;96158.78;;;12.19;100.00
57606;BME280;43430;48.204;11.556;2023-05-24T01:02:32;96150.53;;;12.27;100.00
57606;BME280;43430;48.204;11.556;2023-05-24T01:04:58;96155.13;;;12.31;100.00
57606;BME280;43430;48.204;11.556;2023-05-24T01:07:38;96148.03;;;12.32;100.00
57606;BME280;43430;48.204;11.556;2023-05-24T01:10:24;96141.91;;;12.31;100.00
57606;BME280;43430;48.204;11.556;2023-05-24T01:13:04;96144.88;;;12.23;100.00
57606;BME280;43430;48.204;11.556;2023-05-24T01:15:53;96145.22;;;12.27;100.00
57606;BME280;43430;48.204;11.556;2023-05-24T01:18:32;96144.88;;;12.23;100.00
57606;BME280;43430;48.204;11.556;2023-05-24T01:29:16;96141.06;;;12.07;100.00
57606;BME280;43430;48.204;11.556;2023-05-24T01:31:42;96139.81;;;12.10;100.00
57606;BME280;43430;48.204;11.556;2023-05-24T01:34:08;96147.78;;;12.22;100.00
57606;BME280;43430;48.204;11.556;2023-05-24T01:36:33;96145.22;;;12.15;100.00
57606;BME280;43430;48.204;11.556;2023-05-24T01:38:58;96148.34;;;12.24;100.00
57606;BME280;43430;48.204;11.556;2023-05-24T01:45:13;96142.72;;;11.90;100.00
57606;BME280;43430;48.204;11.556;2023-05-24T01:48:18;96145.16;;;11.92;100.00
57606;BME280;43430;48.204;11.556;2023-05-24T01:50:54;96146.34;;;12.07;100.00
57606;BME280;43430;48.204;11.556;2023-05-24T01:53:23;96156.00;;;12.14;100.00
57606;BME280;43430;48.204;11.556;2023-05-24T01:55:53;96147.16;;;12.08;100.00
57606;BME280;43430;48.204;11.556;2023-05-24T01:58:20;96149.22;;;12.18;100.00
57606;BME280;43430;48.204;11.556;2023-05-24T02:00:46;96152.91;;;12.05;100.00
57606;BME280;43430;48.204;11.556;2023-05-24T02:03:15;96143.91;;;11.94;100.00
57606;BME280;43430;48.204;11.556;2023-05-24T02:05:41;96155.16;;;11.90;100.00
57606;BME280;43430;48.204;11.556;2023-05-24T02:08:08;96149.22;;;12.06;100.00
57606;BME280;43430;48.204;11.556;2023-05-24T02:10:34;96144.28;;;12.09;100.00
57606;BME280;43430;48.204;11.556;2023-05-24T02:13:02;96143.59;;;12.14;100.00
57606;BME280;43430;48.204;11.556;2023-05-24T02:15:27;96140.94;;;12.14;100.00
57606;BME280;43430;48.204;11.556;2023-05-24T02:17:54;96129.03;;;12.23;100.00
57606;BME280;43430;48.204;11.556;2023-05-24T02:20:19;96139.34;;;12.25;100.00
57606;BME280;43430;48.204;11.556;2023-05-24T02:22:49;96138.56;;;12.13;100.00
57606;BME280;43430;48.204;11.556;2023-05-24T02:25:15;96138.09;;;12.16;100.00
57606;BME280;43430;48.204;11.556;2023-05-24T02:27:41;96148.88;;;12.02;100.00
57606;BME280;43430;48.204;11.556;2023-05-24T02:30:11;96148.88;;;12.02;100.00
57606;BME280;43430;48.204;11.556;2023-05-24T02:32:37;96146.25;;;12.14;100.00
57606;BME280;43430;48.204;11.556;2023-05-24T02:35:02;96143.47;;;12.09;100.00
57606;BME280;43430;48.204;11.556;2023-05-24T02:37:28;96139.00;;;11.98;100.00
57606;BME280;43430;48.204;11.556;2023-05-24T02:39:53;96143.28;;;11.80;100.00
57606;BME280;43430;48.204;11.556;2023-05-24T02:42:18;96139.09;;;11.73;100.00
57606;BME280;43430;48.204;11.556;2023-05-24T02:44:44;96140.28;;;11.77;100.00
57606;BME280;43430;48.204;11.556;2023-05-24T02:47:13;96144.22;;;11.86;100.00
57606;BME280;43430;48.204;11.556;2023-05-24T02:49:38;96144.47;;;11.84;100.00
57606;BME280;43430;48.204;11.556;2023-05-24T02:52:04;96140.25;;;11.95;100.00
57606;BME280;43430;48.204;11.556;2023-05-24T02:54:29;96129.22;;;11.98;100.00
57606;BME280;43430;48.204;11.556;2023-05-24T02:56:54;96133.09;;;11.96;100.00
57606;BME280;43430;48.204;11.556;2023-05-24T02:59:21;96131.06;;;11.98;100.00
57606;BME280;43430;48.204;11.556;2023-05-24T03:01:47;96132.88;;;11.97;100.00
57606;BME280;43430;48.204;11.556;2023-05-24T03:04:12;96134.44;;;11.86;100.00
57606;BME280;43430;48.204;11.556;2023-05-24T03:06:37;96131.50;;;11.95;100.00
57606;BME280;43430;48.204;11.556;2023-05-24T03:09:03;96127.28;;;11.75;100.00
57606;BME280;43430;48.204;11.556;2023-05-24T03:11:28;96135.44;;;11.74;100.00
57606;BME280;43430;48.204;11.556;2023-05-24T03:13:53;96139.38;;;11.53;100.00
57606;BME280;43430;48.204;11.556;2023-05-24T03:16:19;96140.91;;;11.60;100.00
57606;BME280;43430;48.204;11.556;2023-05-24T03:18:45;96139.94;;;11.55;100.00
57606;BME280;43430;48.204;11.556;2023-05-24T03:21:10;96127.81;;;11.65;100.00
57606;BME280;43430;48.204;11.556;2023-05-24T03:23:36;96130.69;;;11.64;100.00
57606;BME280;43430;48.204;11.556;2023-05-24T03:26:01;96135.88;;;11.71;100.00
57606;BME280;43430;48.204;11.556;2023-05-24T03:28:26;96138.91;;;11.56;100.00
57606;BME280;43430;48.204;11.556;2023-05-24T03:30:52;96146.44;;;11.40;100.00
57606;BME280;43430;48.204;11.556;2023-05-24T03:33:18;96148.47;;;11.38;100.00
57606;BME280;43430;48.204;11.556;2023-05-24T03:35:43;96149.19;;;11.46;100.00
57606;BME280;43430;48.204;11.556;2023-05-24T03:38:09;96151.84;;;11.46;100.00
57606;BME280;43430;48.204;11.556;2023-05-24T03:40:34;96151.28;;;11.44;100.00
57606;BME280;43430;48.204;11.556;2023-05-24T03:43:00;96157.22;;;11.39;100.00
57606;BME280;43430;48.204;11.556;2023-05-24T03:45:26;96159.34;;;11.30;100.00
57606;BME280;43430;48.204;11.556;2023-05-24T03:47:51;96157.88;;;11.34;100.00
57606;BME280;43430;48.204;11.556;2023-05-24T03:50:16;96157.47;;;11.49;100.00
57606;BME280;43430;48.204;11.556;2023-05-24T03:52:42;96165.78;;;11.34;100.00
57606;BME280;43430;48.204;11.556;2023-05-24T03:55:07;96164.75;;;11.35;100.00
57606;BME280;43430;48.204;11.556;2023-05-24T03:57:33;96164.47;;;11.44;100.00
57606;BME280;43430;48.204;11.556;2023-05-24T03:59:58;96161.19;;;11.30;100.00
57606;BME280;43430;48.204;11.556;2023-05-24T04:02:24;96168.22;;;10.99;100.00
57606;BME280;43430;48.204;11.556;2023-05-24T04:04:50;96170.94;;;10.92;100.00
57606;BME280;43430;48.204;11.556;2023-05-24T04:07:16;96185.59;;;10.88;100.00
57606;BME280;43430;48.204;11.556;2023-05-24T04:09:42;96182.59;;;10.85;100.00
57606;BME280;43430;48.204;11.556;2023-05-24T04:12:07;96179.06;;;10.91;100.00
57606;BME280;43430;48.204;11.556;2023-05-24T04:14:32;96187.63;;;10.86;100.00
57606;BME280;43430;48.204;11.556;2023-05-24T04:16:59;96186.03;;;10.85;100.00
57606;BME280;43430;48.204;11.556;2023-05-24T04:19:26;96180.31;;;10.88;100.00
57606;BME280;43430;48.204;11.556;2023-05-24T04:21:51;96179.59;;;11.00;100.00
57606;BME280;43430;48.204;11.556;2023-05-24T04:24:17;96175.47;;;11.04;100.00
57606;BME280;43430;48.204;11.556;2023-05-24T04:26:42;96170.94;;;10.92;100.00
57606;BME280;43430;48.204;11.556;2023-05-24T04:29:08;96180.25;;;10.70;100.00
57606;BME280;43430;48.204;11.556;2023-05-24T04:31:34;96178.50;;;10.64;100.00
57606;BME280;43430;48.204;11.556;2023-05-24T04:33:59;96179.19;;;10.53;100.00
57606;BME280;43430;48.204;11.556;2023-05-24T04:36:25;96183.00;;;10.63;100.00
57606;BME280;43430;48.204;11.556;2023-05-24T04:38:50;96173.00;;;10.65;100.00
57606;BME280;43430;48.204;11.556;2023-05-24T04:41:18;96171.28;;;10.53;100.00
57606;BME280;43430;48.204;11.556;2023-05-24T04:43:43;96180.22;;;10.52;100.00
57606;BME280;43430;48.204;11.556;2023-05-24T04:46:09;96178.66;;;10.69;100.00
57606;BME280;43430;48.204;11.556;2023-05-24T04:48:34;96179.19;;;10.53;100.00
57606;BME280;43430;48.204;11.556;2023-05-24T04:51:00;96183.13;;;10.68;100.00
57606;BME280;43430;48.204;11.556;2023-05-24T04:53:26;96182.31;;;10.68;100.00
57606;BME280;43430;48.204;11.556;2023-05-24T04:55:51;96179.84;;;10.73;100.00
57606;BME280;43430;48.204;11.556;2023-05-24T04:58:17;96176.81;;;10.69;100.00
57606;BME280;43430;48.204;11.556;2023-05-24T05:00:43;96175.28;;;10.62;100.00
57606;BME280;43430;48.204;11.556;2023-05-24T05:03:09;96181.97;;;10.64;100.00
57606;BME280;43430;48.204;11.556;2023-05-24T05:05:35;96179.56;;;10.81;100.00
57606;BME280;43430;48.204;11.556;2023-05-24T05:08:01;96175.72;;;10.59;100.00
57606;BME280;43430;48.204;11.556;2023-05-24T05:10:27;96182.47;;;10.73;100.00
57606;BME280;43430;48.204;11.556;2023-05-24T05:12:53;96172.09;;;10.78;100.00
57606;BME280;43430;48.204;11.556;2023-05-24T05:15:22;96178.31;;;10.84;100.00
57606;BME280;43430;48.204;11.556;2023-05-24T05:17:48;96182.66;;;10.97;100.00
57606;BME280;43430;48.204;11.556;2023-05-24T05:20:13;96177.38;;;10.97;100.00
57606;BME280;43430;48.204;11.556;2023-05-24T05:22:39;96184.38;;;10.66;100.00
57606;BME280;43430;48.204;11.556;2023-05-24T05:25:04;96187.72;;;10.55;100.00
57606;BME280;43430;48.204;11.556;2023-05-24T05:27:30;96193.31;;;10.65;100.00
57606;BME280;43430;48.204;11.556;2023-05-24T05:29:55;96187.19;;;10.46;100.00
57606;BME280;43430;48.204;11.556;2023-05-24T05:32:21;96193.19;;;10.21;100.00
57606;BME280;43430;48.204;11.556;2023-05-24T05:34:46;96195.72;;;10.41;100.00
57606;BME280;43430;48.204;11.556;2023-05-24T05:37:12;96191.03;;;10.68;100.00
57606;BME280;43430;48.204;11.556;2023-05-24T05:39:37;96186.31;;;10.96;100.00
57606;BME280;43430;48.204;11.556;2023-05-24T05:42:02;96183.75;;;11.07;100.00
57606;BME280;43430;48.204;11.556;2023-05-24T05:44:28;96174.41;;;11.11;100.00
57606;BME280;43430;48.204;11.556;2023-05-24T05:46:53;96161.69;;;11.20;100.00
57606;BME280;43430;48.204;11.556;2023-05-24T05:49:19;96166.09;;;11.26;100.00
57606;BME280;43430;48.204;11.556;2023-05-24T05:51:45;96162.50;;;11.21;100.00
57606;BME280;43430;48.204;11.556;2023-05-24T05:54:11;96157.81;;;11.23;100.00
57606;BME280;43430;48.204;11.556;2023-05-24T05:56:43;96164.88;;;11.29;100.00
57606;BME280;43430;48.204;11.556;2023-05-24T05:59:13;96160.78;;;11.45;100.00
57606;BME280;43430;48.204;11.556;2023-05-24T06:01:40;96160.50;;;11.53;100.00
57606;BME280;43430;48.204;11.556;2023-05-24T06:04:05;96158.88;;;11.52;100.00
57606;BME280;43430;48.204;11.556;2023-05-24T06:06:31;96161.31;;;11.53;100.00
57606;BME280;43430;48.204;11.556;2023-05-24T06:08:57;96157.91;;;11.64;100.00
57606;BME280;43430;48.204;11.556;2023-05-24T06:11:22;96155.03;;;11.66;100.00
57606;BME280;43430;48.204;11.556;2023-05-24T06:13:48;96153.88;;;11.62;100.00
57606;BME280;43430;48.204;11.556;2023-05-24T06:16:13;96148.59;;;11.62;100.00
57606;BME280;43430;48.204;11.556;2023-05-24T06:18:39;96141.72;;;11.73;100.00
57606;BME280;43430;48.204;11.556;2023-05-24T06:21:05;96149.41;;;11.93;100.00
57606;BME280;43430;48.204;11.556;2023-05-24T06:23:30;96145.53;;;12.07;100.00
57606;BME280;43430;48.204;11.556;2023-05-24T06:25:57;96144.72;;;12.06;100.00
57606;BME280;43430;48.204;11.556;2023-05-24T06:28:23;96146.66;;;11.87;100.00
57606;BME280;43430;48.204;11.556;2023-05-24T06:30:48;96141.28;;;12.06;100.00
57606;BME280;43430;48.204;11.556;2023-05-24T06:33:13;96138.91;;;12.16;100.00
57606;BME280;43430;48.204;11.556;2023-05-24T06:35:39;96142.72;;;12.44;100.00
57606;BME280;43430;48.204;11.556;2023-05-24T06:38:04;96137.78;;;12.47;100.00
57606;BME280;43430;48.204;11.556;2023-05-24T06:40:30;96138.59;;;12.48;100.00
57606;BME280;43430;48.204;11.556;2023-05-24T06:42:55;96144.47;;;12.50;100.00
57606;BME280;43430;48.204;11.556;2023-05-24T06:45:22;96148.72;;;12.51;100.00
57606;BME280;43430;48.204;11.556;2023-05-24T06:47:48;96149.72;;;12.38;100.00
57606;BME280;43430;48.204;11.556;2023-05-24T06:50:13;96150.38;;;12.10;100.00
57606;BME280;43430;48.204;11.556;2023-05-24T06:52:39;96147.78;;;12.22;100.00
57606;BME280;43430;48.204;11.556;2023-05-24T06:55:04;96151.81;;;12.48;100.00
57606;BME280;43430;48.204;11.556;2023-05-24T06:57:30;96141.59;;;12.75;100.00
57606;BME280;43430;48.204;11.556;2023-05-24T06:59:55;96141.34;;;12.76;100.00
57606;BME280;43430;48.204;11.556;2023-05-24T07:02:21;96150.06;;;12.18;100.00
57606;BME280;43430;48.204;11.556;2023-05-24T07:04:50;96154.91;;;12.33;100.00
57606;BME280;43430;48.204;11.556;2023-05-24T07:07:16;96158.84;;;12.54;100.00
57606;BME280;43430;48.204;11.556;2023-05-24T07:09:42;96156.78;;;12.68;100.00
57606;BME280;43430;48.204;11.556;2023-05-24T07:12:08;96159.66;;;12.78;100.00
57606;BME280;43430;48.204;11.556;2023-05-24T07:14:34;96155.84;;;12.97;100.00
57606;BME280;43430;48.204;11.556;2023-05-24T07:16:59;96152.72;;;12.65;100.00
57606;BME280;43430;48.204;11.556;2023-05-24T07:19:24;96158.94;;;12.59;100.00
57606;BME280;43430;48.204;11.556;2023-05-24T07:21:56;96151.38;;;12.74;100.00
57606;BME280;43430;48.204;11.556;2023-05-24T07:24:21;96157.75;;;12.31;100.00
57606;BME280;43430;48.204;11.556;2023-05-24T07:26:48;96165.50;;;12.45;100.00
57606;BME280;43430;48.204;11.556;2023-05-24T07:29:14;96161.81;;;12.57;100.00
57606;BME280;43430;48.204;11.556;2023-05-24T07:31:40;96164.00;;;12.49;100.00
57606;BME280;43430;48.204;11.556;2023-05-24T07:34:06;96163.66;;;12.45;100.00
57606;BME280;43430;48.204;11.556;2023-05-24T07:36:32;96166.88;;;12.47;100.00
57606;BME280;43430;48.204;11.556;2023-05-24T07:38:57;96171.06;;;12.13;100.00
57606;BME280;43430;48.204;11.556;2023-05-24T07:41:25;96168.28;;;12.50;100.00
57606;BME280;43430;48.204;11.556;2023-05-24T07:43:53;96168.28;;;12.50;100.00
57606;BME280;43430;48.204;11.556;2023-05-24T07:46:18;96158.94;;;12.59;100.00
57606;BME280;43430;48.204;11.556;2023-05-24T07:48:44;96152.28;;;12.68;100.00
57606;BME280;43430;48.204;11.556;2023-05-24T07:51:10;96155.63;;;12.75;100.00
57606;BME280;43430;48.204;11.556;2023-05-24T07:53:36;96155.34;;;13.12;100.00
57606;BME280;43430;48.204;11.556;2023-05-24T07:56:02;96156.88;;;12.61;100.00
57606;BME280;43430;48.204;11.556;2023-05-24T07:58:27;96175.38;;;12.38;100.00
57606;BME280;43430;48.204;11.556;2023-05-24T08:00:53;96170.97;;;12.20;100.00
57606;BME280;43430;48.204;11.556;2023-05-24T08:03:18;96172.16;;;12.59;100.00
57606;BME280;43430;48.204;11.556;2023-05-24T08:05:43;96164.56;;;12.51;100.00
57606;BME280;43430;48.204;11.556;2023-05-24T08:08:09;96168.09;;;12.21;100.00
57606;BME280;43430;48.204;11.556;2023-05-24T08:10:34;96178.38;;;12.65;100.00
57606;BME280;43430;48.204;11.556;2023-05-24T08:13:00;96171.50;;;12.64;100.00
57606;BME280;43430;48.204;11.556;2023-05-24T08:15:25;96166.66;;;13.07;100.00
57606;BME280;43430;48.204;11.556;2023-05-24T08:17:50;96164.00;;;12.96;100.00
57606;BME280;43430;48.204;11.556;2023-05-24T08:20:16;96161.13;;;13.09;100.00
57606;BME280;43430;48.204;11.556;2023-05-24T08:22:43;96172.97;;;12.95;100.00
57606;BME280;43430;48.204;11.556;2023-05-24T08:25:09;96172.97;;;13.30;100.00
57606;BME280;43430;48.204;11.556;2023-05-24T08:27:35;96171.25;;;12.89;100.00
57606;BME280;43430;48.204;11.556;2023-05-24T08:30:01;96176.06;;;12.80;100.00
57606;BME280;43430;48.204;11.556;2023-05-24T08:32:28;96178.72;;;12.68;100.00
57606;BME280;43430;48.204;11.556;2023-05-24T08:34:53;96177.13;;;12.79;100.00
57606;BME280;43430;48.204;11.556;2023-05-24T08:37:19;96175.28;;;12.68;100.00
57606;BME280;43430;48.204;11.556;2023-05-24T08:39:46;96175.50;;;12.66;100.00
57606;BME280;43430;48.204;11.556;2023-05-24T08:42:12;96171.72;;;12.62;100.00
57606;BME280;43430;48.204;11.556;2023-05-24T08:44:47;96181.72;;;12.60;100.00
57606;BME280;43430;48.204;11.556;2023-05-24T08:47:15;96196.28;;;12.27;100.00
57606;BME280;43430;48.204;11.556;2023-05-24T08:49:41;96196.72;;;12.24;100.00
57606;BME280;43430;48.204;11.556;2023-05-24T08:52:07;96189.09;;;12.04;100.00
57606;BME280;43430;48.204;11.556;2023-05-24T08:54:35;96187.38;;;12.10;100.00
57606;BME280;43430;48.204;11.556;2023-05-24T08:57:01;96186.19;;;12.48;100.00
57606;BME280;43430;48.204;11.556;2023-05-24T08:59:26;96183.56;;;12.71;100.00
57606;BME280;43430;48.204;11.556;2023-05-24T09:01:53;96184.72;;;12.75;100.00
57606;BME280;43430;48.204;11.556;2023-05-24T09:04:20;96178.16;;;12.90;100.00
57606;BME280;43430;48.204;11.556;2023-05-24T09:06:47;96169.28;;;12.96;100.00
57606;BME280;43430;48.204;11.556;2023-05-24T09:09:14;96166.09;;;12.70;100.00
57606;BME280;43430;48.204;11.556;2023-05-24T09:11:44;96160.19;;;13.03;100.00
57606;BME280;43430;48.204;11.556;2023-05-24T09:14:12;96158.47;;;13.33;100.00
57606;BME280;43430;48.204;11.556;2023-05-24T09:16:38;96157.53;;;13.39;100.00
57606;BME280;43430;48.204;11.556;2023-05-24T09:19:03;96169.50;;;13.29;100.00
57606;BME280;43430;48.204;11.556;2023-05-24T09:21:29;96174.00;;;12.94;100.00
57606;BME280;43430;48.204;11.556;2023-05-24T09:23:54;96184.81;;;13.04;100.00
57606;BME280;43430;48.204;11.556;2023-05-24T09:26:20;96175.50;;;13.13;100.00
57606;BME280;43430;48.204;11.556;2023-05-24T09:28:46;96180.13;;;12.82;100.00
57606;BME280;43430;48.204;11.556;2023-05-24T09:31:11;96183.56;;;12.71;100.00
57606;BME280;43430;48.204;11.556;2023-05-24T09:33:38;96181.38;;;12.68;100.00
57606;BME280;43430;48.204;11.556;2023-05-24T09:36:04;96181.84;;;12.89;100.00
57606;BME280;43430;48.204;11.556;2023-05-24T09:38:31;96178.75;;;12.92;100.00
57606;BME280;43430;48.204;11.556;2023-05-24T09:41:01;96175.59;;;13.06;100.00
57606;BME280;43430;48.204;11.556;2023-05-24T09:43:27;96175.50;;;13.13;100.00
57606;BME280;43430;48.204;11.556;2023-05-24T09:45:54;96183.22;;;13.15;100.00
57606;BME280;43430;48.204;11.556;2023-05-24T09:48:22;96173.75;;;13.07;100.00
57606;BME280;43430;48.204;11.556;2023-05-24T09:51:04;96188.16;;;13.11;100.00
57606;BME280;43430;48.204;11.556;2023-05-24T09:53:34;96184.00;;;12.80;100.00
57606;BME280;43430;48.204;11.556;2023-05-24T09:55:59;96180.81;;;12.90;100.00
57606;BME280;43430;48.204;11.556;2023-05-24T09:58:31;96184.38;;;12.83;100.00
57606;BME280;43430;48.204;11.556;2023-05-24T10:01:06;96190.47;;;12.96;100.00
57606;BME280;43430;48.204;11.556;2023-05-24T10:03:32;96188.41;;;12.98;100.00
57606;BME280;43430;48.204;11.556;2023-05-24T10:05:58;96177.13;;;12.91;100.00
57606;BME280;43430;48.204;11.556;2023-05-24T10:08:24;96177.81;;;12.98;100.00
57606;BME280;43430;48.204;11.556;2023-05-24T10:10:50;96185.41;;;13.06;100.00
57606;BME280;43430;48.204;11.556;2023-05-24T10:13:16;96177.09;;;13.14;100.00
57606;BME280;43430;48.204;11.556;2023-05-24T10:15:43;96173.31;;;12.98;100.00
57606;BME280;43430;48.204;11.556;2023-05-24T10:18:09;96177.81;;;12.51;100.00
57606;BME280;43430;48.204;11.556;2023-05-24T10:20:35;96186.56;;;12.63;100.00
57606;BME280;43430;48.204;11.556;2023-05-24T10:23:03;96194.50;;;12.98;100.00
57606;BME280;43430;48.204;11.556;2023-05-24T10:25:32;96187.72;;;12.91;100.00
57606;BME280;43430;48.204;11.556;2023-05-24T10:28:06;96189.09;;;13.05;100.00
57606;BME280;43430;48.204;11.556;2023-05-24T10:33:18;96200.13;;;12.78;100.00
57606;BME280;43430;48.204;11.556;2023-05-24T10:35:46;96190.25;;;12.74;100.00
57606;BME280;43430;48.204;11.556;2023-05-24T10:38:11;96198.41;;;12.61;100.00
57606;BME280;43430;48.204;11.556;2023-05-24T10:40:41;96194.59;;;12.68;100.00
57606;BME280;43430;48.204;11.556;2023-05-24T10:43:07;96194.72;;;12.62;100.00
57606;BME280;43430;48.204;11.556;2023-05-24T10:45:36;96189.09;;;12.81;100.00
57606;BME280;43430;48.204;11.556;2023-05-24T10:50:40;96191.38;;;12.90;100.00
57606;BME280;43430;48.204;11.556;2023-05-24T10:55:58;96190.47;;;12.96;100.00
57606;BME280;43430;48.204;11.556;2023-05-24T10:58:28;96192.06;;;13.20;100.00
57606;BME280;43430;48.204;11.556;2023-05-24T11:01:27;96178.97;;;13.25;100.00
57606;BME280;43430;48.204;11.556;2023-05-24T11:04:09;96185.03;;;13.38;100.00
57606;BME280;43430;48.204;11.556;2023-05-24T11:06:48;96185.66;;;13.04;100.00
57606;BME280;43430;48.204;11.556;2023-05-24T11:09:17;96188.00;;;13.41;100.00
57606;BME280;43430;48.204;11.556;2023-05-24T11:11:47;96191.75;;;12.70;100.00
57606;BME280;43430;48.204;11.556;2023-05-24T11:14:17;96192.75;;;12.69;100.00
57606;BME280;43430;48.204;11.556;2023-05-24T11:16:44;96190.81;;;12.88;100.00
57606;BME280;43430;48.204;11.556;2023-05-24T11:19:15;96195.19;;;12.70;100.00
57606;BME280;43430;48.204;11.556;2023-05-24T11:21:43;96178.72;;;12.68;100.00
57606;BME280;43430;48.204;11.556;2023-05-24T11:24:09;96190.00;;;12.64;100.00
57606;BME280;43430;48.204;11.556;2023-05-24T11:26:34;96184.25;;;12.90;100.00
57606;BME280;43430;48.204;11.556;2023-05-24T11:29:00;96174.25;;;12.69;100.00
57606;BME280;43430;48.204;11.556;2023-05-24T11:31:26;96177.59;;;13.11;100.00
57606;BME280;43430;48.204;11.556;2023-05-24T11:33:52;96178.72;;;13.15;100.00
57606;BME280;43430;48.204;11.556;2023-05-24T11:36:18;96182.09;;;12.87;100.00
57606;BME280;43430;48.204;11.556;2023-05-24T11:38:45;96175.72;;;13.00;100.00
57606;BME280;43430;48.204;11.556;2023-05-24T11:41:12;96180.69;;;13.08;100.00
57606;BME280;43430;48.204;11.556;2023-05-24T11:43:37;96166.34;;;13.44;100.00
57606;BME280;43430;48.204;11.556;2023-05-24T11:46:03;96175.94;;;13.34;100.00
57606;BME280;43430;48.204;11.556;2023-05-24T11:48:28;96171.44;;;13.34;100.00
57606;BME280;43430;48.204;11.556;2023-05-24T11:50:55;96166.88;;;13.58;100.00
57606;BME280;43430;48.204;11.556;2023-05-24T11:53:21;96174.03;;;13.86;100.00
57606;BME280;43430;48.204;11.556;2023-05-24T11:55:46;96172.13;;;13.41;100.00
57606;BME280;43430;48.204;11.556;2023-05-24T12:00:41;96170.41;;;13.75;100.00
57606;BME280;43430;48.204;11.556;2023-05-24T12:03:07;96169.50;;;13.06;100.00
57606;BME280;43430;48.204;11.556;2023-05-24T12:05:34;96167.41;;;13.20;100.00
57606;BME280;43430;48.204;11.556;2023-05-24T12:08:06;96161.06;;;13.44;100.00
57606;BME280;43430;48.204;11.556;2023-05-24T12:10:33;96163.75;;;13.33;100.00
57606;BME280;43430;48.204;11.556;2023-05-24T12:12:59;96171.06;;;13.54;100.00
57606;BME280;43430;48.204;11.556;2023-05-24T12:15:25;96162.31;;;13.53;100.00
57606;BME280;43430;48.204;11.556;2023-05-24T12:17:51;96166.81;;;13.53;100.00
57606;BME280;43430;48.204;11.556;2023-05-24T12:20:17;96166.41;;;13.61;100.00
57606;BME280;43430;48.204;11.556;2023-05-24T12:22:51;96171.44;;;13.74;100.00
57606;BME280;43430;48.204;11.556;2023-05-24T12:25:18;96174.00;;;13.29;100.00
57606;BME280;43430;48.204;11.556;2023-05-24T12:27:53;96169.03;;;13.21;100.00
57606;BME280;43430;48.204;11.556;2023-05-24T12:30:24;96165.59;;;13.09;100.00
57606;BME280;43430;48.204;11.556;2023-05-24T12:32:50;96160.28;;;13.20;100.00
57606;BME280;43430;48.204;11.556;2023-05-24T12:35:17;96165.69;;;13.37;100.00
57606;BME280;43430;48.204;11.556;2023-05-24T12:37:43;96159.38;;;13.26;100.00
57606;BME280;43430;48.204;11.556;2023-05-24T12:40:17;96168.53;;;13.47;100.00
57606;BME280;43430;48.204;11.556;2023-05-24T12:42:54;96167.56;;;13.65;100.00
57606;BME280;43430;48.204;11.556;2023-05-24T12:45:22;96168.31;;;13.77;100.00
57606;BME280;43430;48.204;11.556;2023-05-24T12:47:53;96166.28;;;13.96;100.00
57606;BME280;43430;48.204;11.556;2023-05-24T12:50:19;96171.78;;;13.78;100.00
57606;BME280;43430;48.204;11.556;2023-05-24T12:52:46;96170.56;;;13.97;100.00
57606;BME280;43430;48.204;11.556;2023-05-24T12:55:15;96175.19;;;13.90;100.00
57606;BME280;43430;48.204;11.556;2023-05-24T12:57:45;96174.75;;;13.53;100.00
57606;BME280;43430;48.204;11.556;2023-05-24T13:00:18;96170.19;;;13.65;100.00
57606;BME280;43430;48.204;11.556;2023-05-24T13:02:45;96159.25;;;13.33;100.00